sensor_id;sensor_type;location;lat;lon;timestamp;pressure;altitude;pressure_sealevel;temperature;humidity
13553;BME280;6847;48.830;9.116;2023-08-01T00:01:33;96956.59;;;21.52;69.04
13553;BME280;6847;48.830;9.116;2023-08-01T00:04:00;96938.22;;;21.33;69.13
13553;BME280;6847;48.830;9.116;2023-08-01T00:06:28;96951.66;;;21.38;69.36
13553;BME280;6847;48.830;9.116;2023-08-01T00:08:55;96948.00;;;21.31;69.26
13553;BME280;6847;48.830;9.116;2023-08-01T00:11:21;96945.19;;;21.27;69.27
13553;BME280;6847;48.830;9.116;2023-08-01T00:13:48;96942.78;;;21.26;69.09
13553;BME280;6847;48.830;9.116;2023-08-01T00:16:15;96771.25;;;20.20;69.09
13553;BME280;6847;48.830;9.116;2023-08-01T00:18:42;96932.22;;;21.28;69.07
13553;BME280;6847;48.830;9.116;2023-08-01T00:21:08;96931.91;;;21.33;69.08
13553;BME280;6847;48.830;9.116;2023-08-01T00:23:38;96931.16;;;21.36;68.88
13553;BME280;6847;48.830;9.116;2023-08-01T00:26:05;96922.59;;;21.41;68.77
13553;BME280;6847;48.830;9.116;2023-08-01T00:28:32;96917.91;;;21.45;68.60
13553;BME280;6847;48.830;9.116;2023-08-01T00:31:03;96921.94;;;21.51;68.52
13553;BME280;6847;48.830;9.116;2023-08-01T00:33:34;96911.75;;;21.55;68.47
13553;BME280;6847;48.830;9.116;2023-08-01T00:36:03;96893.66;;;21.54;68.46
13553;BME280;6847;48.830;9.116;2023-08-01T00:38:34;96894.19;;;21.63;68.27
13553;BME280;6847;48.830;9.116;2023-08-01T00:41:02;96885.94;;;21.67;68.34
13553;BME280;6847;48.830;9.116;2023-08-01T00:43:29;96882.41;;;21.66;68.13
13553;BME280;6847;48.830;9.116;2023-08-01T00:45:59;96873.31;;;21.62;68.43
13553;BME280;6847;48.830;9.116;2023-08-01T00:48:26;96817.34;;;21.25;68.31
13553;BME280;6847;48.830;9.116;2023-08-01T00:50:56;96852.66;;;21.49;68.24
13553;BME280;6847;48.830;9.116;2023-08-01T00:53:30;96849.47;;;21.44;68.53
13553;BME280;6847;48.830;9.116;2023-08-01T00:56:02;96785.59;;;21.04;68.25
13553;BME280;6847;48.830;9.116;2023-08-01T00:58:32;96805.94;;;21.26;68.32
13553;BME280;6847;48.830;9.116;2023-08-01T01:00:58;96826.44;;;21.29;68.47
13553;BME280;6847;48.830;9.116;2023-08-01T01:03:25;96840.41;;;21.43;68.52
13553;BME280;6847;48.830;9.116;2023-08-01T01:06:00;96842.78;;;21.45;68.52
13553;BME280;6847;48.830;9.116;2023-08-01T01:08:29;96840.25;;;21.32;68.39
13553;BME280;6847;48.830;9.116;2023-08-01T01:10:56;96838.97;;;21.26;68.62
13553;BME280;6847;48.830;9.116;2023-08-01T01:13:26;96761.34;;;20.87;68.62
13553;BME280;6847;48.830;9.116;2023-08-01T01:15:53;96827.31;;;21.36;68.42
13553;BME280;6847;48.830;9.116;2023-08-01T01:18:19;96817.94;;;21.41;68.48
13553;BME280;6847;48.830;9.116;2023-08-01T01:20:47;96822.75;;;21.48;68.28
13553;BME280;6847;48.830;9.116;2023-08-01T01:23:14;96641.47;;;20.30;68.13
13553;BME280;6847;48.830;9.116;2023-08-01T01:25:41;96820.78;;;21.48;68.25
13553;BME280;6847;48.830;9.116;2023-08-01T01:28:12;96817.22;;;21.44;68.13
13553;BME280;6847;48.830;9.116;2023-08-01T01:30:39;96810.00;;;21.36;68.24
13553;BME280;6847;48.830;9.116;2023-08-01T01:33:08;96786.97;;;21.18;68.37
13553;BME280;6847;48.830;9.116;2023-08-01T01:35:36;96795.72;;;21.27;68.40
13553;BME280;6847;48.830;9.116;2023-08-01T01:38:04;96808.25;;;21.21;68.26
13553;BME280;6847;48.830;9.116;2023-08-01T01:40:32;96749.19;;;20.62;68.77
13553;BME280;6847;48.830;9.116;2023-08-01T01:43:00;96774.16;;;20.50;69.60
13553;BME280;6847;48.830;9.116;2023-08-01T01:45:27;96774.38;;;20.64;70.17
13553;BME280;6847;48.830;9.116;2023-08-01T01:47:54;96783.72;;;20.59;70.42
13553;BME280;6847;48.830;9.116;2023-08-01T01:50:21;96782.81;;;20.52;70.86
13553;BME280;6847;48.830;9.116;2023-08-01T01:52:48;96780.00;;;20.48;71.12
13553;BME280;6847;48.830;9.116;2023-08-01T01:55:16;96762.34;;;20.49;71.42
13553;BME280;6847;48.830;9.116;2023-08-01T01:57:42;96741.78;;;20.40;71.67
13553;BME280;6847;48.830;9.116;2023-08-01T02:00:12;96754.47;;;20.48;71.95
13553;BME280;6847;48.830;9.116;2023-08-01T02:02:41;96704.84;;;20.14;71.89
13553;BME280;6847;48.830;9.116;2023-08-01T02:05:08;96762.41;;;20.53;72.17
13553;BME280;6847;48.830;9.116;2023-08-01T02:07:34;96741.03;;;20.43;72.32
13553;BME280;6847;48.830;9.116;2023-08-01T02:10:05;96753.75;;;20.51;72.50
13553;BME280;6847;48.830;9.116;2023-08-01T02:12:33;96744.22;;;20.45;72.49
13553;BME280;6847;48.830;9.116;2023-08-01T02:15:00;96752.91;;;20.47;72.59
13553;BME280;6847;48.830;9.116;2023-08-01T02:17:30;96762.31;;;20.46;72.79
13553;BME280;6847;48.830;9.116;2023-08-01T02:19:57;96759.97;;;20.48;73.05
13553;BME280;6847;48.830;9.116;2023-08-01T02:22:28;96758.94;;;20.56;73.04
13553;BME280;6847;48.830;9.116;2023-08-01T02:24:54;96732.47;;;20.48;73.29
13553;BME280;6847;48.830;9.116;2023-08-01T02:27:21;96758.72;;;20.68;73.31
13553;BME280;6847;48.830;9.116;2023-08-01T02:29:49;96749.13;;;20.58;73.32
13553;BME280;6847;48.830;9.116;2023-08-01T02:32:19;96769.78;;;20.72;73.33
13553;BME280;6847;48.830;9.116;2023-08-01T02:34:45;96779.91;;;20.67;73.48
13553;BME280;6847;48.830;9.116;2023-08-01T02:37:15;96669.91;;;20.15;73.50
13553;BME280;6847;48.830;9.116;2023-08-01T02:39:47;96748.78;;;20.60;73.65
13553;BME280;6847;48.830;9.116;2023-08-01T02:42:17;96717.53;;;20.45;73.80
13553;BME280;6847;48.830;9.116;2023-08-01T02:44:44;96730.22;;;20.53;73.86
13553;BME280;6847;48.830;9.116;2023-08-01T02:47:12;96751.63;;;20.67;73.82
13553;BME280;6847;48.830;9.116;2023-08-01T02:49:40;96727.19;;;20.62;74.09
13553;BME280;6847;48.830;9.116;2023-08-01T02:52:10;96731.31;;;20.75;74.08
13553;BME280;6847;48.830;9.116;2023-08-01T02:54:38;96729.78;;;20.78;74.16
13553;BME280;6847;48.830;9.116;2023-08-01T02:57:05;96716.28;;;20.69;74.26
13553;BME280;6847;48.830;9.116;2023-08-01T02:59:31;96713.03;;;20.60;74.21
13553;BME280;6847;48.830;9.116;2023-08-01T03:02:01;96729.75;;;20.74;74.41
13553;BME280;6847;48.830;9.116;2023-08-01T03:04:29;96670.19;;;20.32;74.46
13553;BME280;6847;48.830;9.116;2023-08-01T03:06:57;96550.41;;;19.52;74.23
13553;BME280;6847;48.830;9.116;2023-08-01T03:09:24;96719.91;;;20.73;74.42
13553;BME280;6847;48.830;9.116;2023-08-01T03:11:52;96707.53;;;20.60;74.38
13553;BME280;6847;48.830;9.116;2023-08-01T03:14:18;96723.38;;;20.70;74.48
13553;BME280;6847;48.830;9.116;2023-08-01T03:16:45;96670.03;;;20.48;74.50
13553;BME280;6847;48.830;9.116;2023-08-01T03:19:11;96700.66;;;20.73;74.40
13553;BME280;6847;48.830;9.116;2023-08-01T03:21:40;96704.63;;;20.76;74.31
13553;BME280;6847;48.830;9.116;2023-08-01T03:24:08;96714.81;;;20.75;74.45
13553;BME280;6847;48.830;9.116;2023-08-01T03:26:34;96720.34;;;20.79;74.40
13553;BME280;6847;48.830;9.116;2023-08-01T03:29:01;96720.41;;;20.82;74.42
13553;BME280;6847;48.830;9.116;2023-08-01T03:31:28;96675.25;;;20.57;74.59
13553;BME280;6847;48.830;9.116;2023-08-01T03:33:55;96724.31;;;20.81;74.56
13553;BME280;6847;48.830;9.116;2023-08-01T03:36:23;96707.41;;;20.79;74.67
13553;BME280;6847;48.830;9.116;2023-08-01T03:38:51;96463.63;;;19.21;74.35
13553;BME280;6847;48.830;9.116;2023-08-01T03:41:19;96699.06;;;20.72;74.46
13553;BME280;6847;48.830;9.116;2023-08-01T03:43:45;96653.06;;;20.43;74.42
13553;BME280;6847;48.830;9.116;2023-08-01T03:46:12;96701.53;;;20.81;74.32
13553;BME280;6847;48.830;9.116;2023-08-01T03:48:42;96693.28;;;20.81;74.39
13553;BME280;6847;48.830;9.116;2023-08-01T03:51:09;96691.38;;;20.85;74.36
13553;BME280;6847;48.830;9.116;2023-08-01T03:53:36;96689.00;;;20.83;74.22
13553;BME280;6847;48.830;9.116;2023-08-01T03:56:05;96704.47;;;20.95;74.30
13553;BME280;6847;48.830;9.116;2023-08-01T03:58:31;96685.31;;;21.02;74.24
13553;BME280;6847;48.830;9.116;2023-08-01T04:00:58;96668.06;;;21.09;74.34
13553;BME280;6847;48.830;9.116;2023-08-01T04:03:24;96639.25;;;20.95;74.47
13553;BME280;6847;48.830;9.116;2023-08-01T04:05:52;96662.34;;;21.21;74.51
13553;BME280;6847;48.830;9.116;2023-08-01T04:08:20;96640.34;;;21.21;74.60
13553;BME280;6847;48.830;9.116;2023-08-01T04:10:46;96609.84;;;21.40;74.52
13553;BME280;6847;48.830;9.116;2023-08-01T04:13:15;96594.56;;;21.46;74.52
13553;BME280;6847;48.830;9.116;2023-08-01T04:15:41;96579.22;;;21.45;74.21
13553;BME280;6847;48.830;9.116;2023-08-01T04:18:08;96581.22;;;21.48;74.04
13553;BME280;6847;48.830;9.116;2023-08-01T04:20:38;96561.84;;;21.37;73.98
13553;BME280;6847;48.830;9.116;2023-08-01T04:23:09;96553.53;;;21.30;73.87
13553;BME280;6847;48.830;9.116;2023-08-01T04:25:35;96520.94;;;20.95;73.71
13553;BME280;6847;48.830;9.116;2023-08-01T04:28:04;96515.50;;;21.02;73.32
13553;BME280;6847;48.830;9.116;2023-08-01T04:30:32;96562.31;;;21.43;73.30
13553;BME280;6847;48.830;9.116;2023-08-01T04:32:59;96530.47;;;21.49;72.78
13553;BME280;6847;48.830;9.116;2023-08-01T04:35:25;96531.00;;;21.65;72.49
13553;BME280;6847;48.830;9.116;2023-08-01T04:37:52;96483.66;;;21.49;72.34
13553;BME280;6847;48.830;9.116;2023-08-01T04:40:18;96515.75;;;21.78;72.07
13553;BME280;6847;48.830;9.116;2023-08-01T04:42:47;96512.25;;;21.82;71.65
13553;BME280;6847;48.830;9.116;2023-08-01T04:45:13;96464.03;;;21.51;71.68
13553;BME280;6847;48.830;9.116;2023-08-01T04:47:41;96520.94;;;21.91;71.51
13553;BME280;6847;48.830;9.116;2023-08-01T04:50:10;96531.59;;;21.96;71.34
13553;BME280;6847;48.830;9.116;2023-08-01T04:52:37;96557.97;;;21.97;71.04
13553;BME280;6847;48.830;9.116;2023-08-01T04:55:04;96570.66;;;22.05;70.85
13553;BME280;6847;48.830;9.116;2023-08-01T04:57:31;96593.53;;;22.09;70.77
13553;BME280;6847;48.830;9.116;2023-08-01T04:59:57;96575.44;;;22.15;70.55
13553;BME280;6847;48.830;9.116;2023-08-01T05:02:24;96597.91;;;22.17;70.25
13553;BME280;6847;48.830;9.116;2023-08-01T05:04:53;96622.69;;;22.10;70.35
13553;BME280;6847;48.830;9.116;2023-08-01T05:07:20;96655.06;;;22.20;70.06
13553;BME280;6847;48.830;9.116;2023-08-01T05:09:49;96628.13;;;21.99;69.87
13553;BME280;6847;48.830;9.116;2023-08-01T05:12:15;96640.72;;;22.04;69.88
13553;BME280;6847;48.830;9.116;2023-08-01T05:14:42;96648.28;;;22.14;69.92
13553;BME280;6847;48.830;9.116;2023-08-01T05:17:08;96628.19;;;22.13;69.73
13553;BME280;6847;48.830;9.116;2023-08-01T05:19:35;96543.63;;;21.70;69.63
13553;BME280;6847;48.830;9.116;2023-08-01T05:22:03;96607.72;;;22.11;69.68
13553;BME280;6847;48.830;9.116;2023-08-01T05:24:29;96469.22;;;21.15;69.46
13553;BME280;6847;48.830;9.116;2023-08-01T05:26:56;96610.91;;;22.13;69.41
13553;BME280;6847;48.830;9.116;2023-08-01T05:29:25;96621.13;;;22.16;69.39
13553;BME280;6847;48.830;9.116;2023-08-01T05:31:52;96564.66;;;21.92;69.12
13553;BME280;6847;48.830;9.116;2023-08-01T05:34:20;96614.13;;;22.22;69.10
13553;BME280;6847;48.830;9.116;2023-08-01T05:36:46;96364.56;;;20.57;68.86
13553;BME280;6847;48.830;9.116;2023-08-01T05:39:14;96435.38;;;21.11;68.79
13553;BME280;6847;48.830;9.116;2023-08-01T05:41:43;96619.69;;;22.36;68.75
13553;BME280;6847;48.830;9.116;2023-08-01T05:44:13;96585.34;;;22.23;68.71
13553;BME280;6847;48.830;9.116;2023-08-01T05:46:39;96617.38;;;22.45;68.62
13553;BME280;6847;48.830;9.116;2023-08-01T05:49:06;96591.34;;;22.32;68.52
13553;BME280;6847;48.830;9.116;2023-08-01T05:51:32;96621.00;;;22.57;68.40
13553;BME280;6847;48.830;9.116;2023-08-01T05:54:01;96605.59;;;22.48;68.29
13553;BME280;6847;48.830;9.116;2023-08-01T05:56:29;96611.53;;;22.50;68.30
13553;BME280;6847;48.830;9.116;2023-08-01T05:58:55;96640.75;;;22.62;68.22
13553;BME280;6847;48.830;9.116;2023-08-01T06:01:25;96635.59;;;22.57;68.35
13553;BME280;6847;48.830;9.116;2023-08-01T06:03:52;96619.78;;;22.50;68.29
13553;BME280;6847;48.830;9.116;2023-08-01T06:06:21;96626.50;;;22.49;68.16
13553;BME280;6847;48.830;9.116;2023-08-01T06:08:48;96645.47;;;22.62;68.07
13553;BME280;6847;48.830;9.116;2023-08-01T06:11:15;96638.75;;;22.63;68.13
13553;BME280;6847;48.830;9.116;2023-08-01T06:13:43;96604.78;;;22.44;67.89
13553;BME280;6847;48.830;9.116;2023-08-01T06:16:09;96472.69;;;21.56;67.80
13553;BME280;6847;48.830;9.116;2023-08-01T06:18:39;96563.63;;;22.14;67.96
13553;BME280;6847;48.830;9.116;2023-08-01T06:21:05;96637.56;;;22.57;67.60
13553;BME280;6847;48.830;9.116;2023-08-01T06:23:32;96644.25;;;22.56;67.66
13553;BME280;6847;48.830;9.116;2023-08-01T06:26:01;96656.31;;;22.33;67.64
13553;BME280;6847;48.830;9.116;2023-08-01T06:28:27;96658.25;;;21.82;68.24
13553;BME280;6847;48.830;9.116;2023-08-01T06:30:55;96657.75;;;21.32;69.16
13553;BME280;6847;48.830;9.116;2023-08-01T06:33:22;96658.44;;;20.92;70.08
13553;BME280;6847;48.830;9.116;2023-08-01T06:35:51;96634.44;;;20.32;70.43
13553;BME280;6847;48.830;9.116;2023-08-01T06:38:18;96651.41;;;20.35;71.88
13553;BME280;6847;48.830;9.116;2023-08-01T06:40:45;96671.53;;;20.19;72.81
13553;BME280;6847;48.830;9.116;2023-08-01T06:43:11;96673.75;;;20.10;73.24
13553;BME280;6847;48.830;9.116;2023-08-01T06:45:38;96665.78;;;20.02;73.52
13553;BME280;6847;48.830;9.116;2023-08-01T06:48:06;96670.72;;;19.92;74.16
13553;BME280;6847;48.830;9.116;2023-08-01T06:50:36;96666.22;;;19.81;74.77
13553;BME280;6847;48.830;9.116;2023-08-01T06:53:02;96667.19;;;19.69;75.02
13553;BME280;6847;48.830;9.116;2023-08-01T06:55:29;96650.84;;;19.53;75.66
13553;BME280;6847;48.830;9.116;2023-08-01T06:57:55;96640.56;;;19.50;76.22
13553;BME280;6847;48.830;9.116;2023-08-01T07:00:22;96641.38;;;19.51;76.50
13553;BME280;6847;48.830;9.116;2023-08-01T07:02:51;96645.47;;;19.61;76.99
13553;BME280;6847;48.830;9.116;2023-08-01T07:05:22;96632.59;;;19.65;76.89
13553;BME280;6847;48.830;9.116;2023-08-01T07:07:50;96641.44;;;19.77;76.63
13553;BME280;6847;48.830;9.116;2023-08-01T07:10:17;96508.53;;;18.87;76.84
13553;BME280;6847;48.830;9.116;2023-08-01T07:12:43;96645.00;;;19.78;76.13
13553;BME280;6847;48.830;9.116;2023-08-01T07:15:10;96631.56;;;19.73;76.10
13553;BME280;6847;48.830;9.116;2023-08-01T07:17:36;96636.97;;;19.69;76.06
13553;BME280;6847;48.830;9.116;2023-08-01T07:20:03;96634.22;;;19.69;76.26
13553;BME280;6847;48.830;9.116;2023-08-01T07:22:31;96658.94;;;19.69;76.05
13553;BME280;6847;48.830;9.116;2023-08-01T07:24:57;96360.03;;;17.78;75.84
13553;BME280;6847;48.830;9.116;2023-08-01T07:27:24;96687.75;;;19.56;76.26
13553;BME280;6847;48.830;9.116;2023-08-01T07:29:50;96666.09;;;19.32;76.34
13553;BME280;6847;48.830;9.116;2023-08-01T07:32:17;96665.63;;;19.07;76.57
13553;BME280;6847;48.830;9.116;2023-08-01T07:34:46;96637.84;;;18.70;77.19
13553;BME280;6847;48.830;9.116;2023-08-01T07:37:12;96610.31;;;18.47;77.71
13553;BME280;6847;48.830;9.116;2023-08-01T07:39:40;96298.78;;;16.27;78.13
13553;BME280;6847;48.830;9.116;2023-08-01T07:42:07;96652.25;;;18.67;78.46
13553;BME280;6847;48.830;9.116;2023-08-01T07:44:34;96639.22;;;18.60;78.95
13553;BME280;6847;48.830;9.116;2023-08-01T07:47:01;96662.34;;;18.63;78.77
13553;BME280;6847;48.830;9.116;2023-08-01T07:49:31;96637.81;;;18.51;78.89
13553;BME280;6847;48.830;9.116;2023-08-01T07:51:58;96449.75;;;17.34;79.12
13553;BME280;6847;48.830;9.116;2023-08-01T07:54:28;96665.66;;;18.72;79.46
13553;BME280;6847;48.830;9.116;2023-08-01T07:56:58;96666.09;;;18.74;79.65
13553;BME280;6847;48.830;9.116;2023-08-01T07:59:25;96657.97;;;18.77;79.83
13553;BME280;6847;48.830;9.116;2023-08-01T08:01:52;96590.75;;;18.48;80.05
13553;BME280;6847;48.830;9.116;2023-08-01T08:04:19;96641.50;;;18.97;80.36
13553;BME280;6847;48.830;9.116;2023-08-01T08:06:47;96641.72;;;19.07;80.23
13553;BME280;6847;48.830;9.116;2023-08-01T08:09:15;96650.97;;;19.18;79.97
13553;BME280;6847;48.830;9.116;2023-08-01T08:11:41;96657.97;;;19.16;79.76
13553;BME280;6847;48.830;9.116;2023-08-01T08:14:09;96646.69;;;19.02;79.63
13553;BME280;6847;48.830;9.116;2023-08-01T08:16:50;96637.31;;;19.03;79.33
13553;BME280;6847;48.830;9.116;2023-08-01T08:19:26;96656.94;;;19.05;79.62
13553;BME280;6847;48.830;9.116;2023-08-01T08:21:57;96650.75;;;19.08;79.99
13553;BME280;6847;48.830;9.116;2023-08-01T08:24:24;96537.47;;;18.46;79.90
13553;BME280;6847;48.830;9.116;2023-08-01T08:26:53;96636.38;;;19.14;80.15
13553;BME280;6847;48.830;9.116;2023-08-01T08:29:22;96447.56;;;17.94;79.80
13553;BME280;6847;48.830;9.116;2023-08-01T08:31:50;96652.69;;;19.27;79.87
13553;BME280;6847;48.830;9.116;2023-08-01T08:34:17;96662.13;;;19.29;79.64
13553;BME280;6847;48.830;9.116;2023-08-01T08:36:49;96663.41;;;19.35;79.73
13553;BME280;6847;48.830;9.116;2023-08-01T08:39:16;96590.41;;;19.08;79.67
13553;BME280;6847;48.830;9.116;2023-08-01T08:41:45;96641.63;;;19.65;80.00
13553;BME280;6847;48.830;9.116;2023-08-01T08:44:15;96625.19;;;19.69;79.37
13553;BME280;6847;48.830;9.116;2023-08-01T08:46:44;96651.34;;;20.08;79.41
13553;BME280;6847;48.830;9.116;2023-08-01T08:49:11;96650.06;;;20.28;79.06
13553;BME280;6847;48.830;9.116;2023-08-01T08:51:41;96658.09;;;20.37;78.34
13553;BME280;6847;48.830;9.116;2023-08-01T08:54:10;96649.06;;;20.37;78.16
13553;BME280;6847;48.830;9.116;2023-08-01T08:56:37;96663.16;;;20.61;78.22
13553;BME280;6847;48.830;9.116;2023-08-01T08:59:06;96667.44;;;20.89;78.18
13553;BME280;6847;48.830;9.116;2023-08-01T09:01:33;96674.25;;;20.98;77.64
13553;BME280;6847;48.830;9.116;2023-08-01T09:04:01;96673.81;;;20.96;77.49
13553;BME280;6847;48.830;9.116;2023-08-01T09:06:30;96678.81;;;20.87;77.14
13553;BME280;6847;48.830;9.116;2023-08-01T09:09:01;96674.81;;;20.81;77.46
13553;BME280;6847;48.830;9.116;2023-08-01T09:11:38;96674.81;;;20.81;77.46
13553;BME280;6847;48.830;9.116;2023-08-01T09:14:07;96680.22;;;20.74;77.55
13553;BME280;6847;48.830;9.116;2023-08-01T09:16:34;96601.25;;;20.18;77.69
13553;BME280;6847;48.830;9.116;2023-08-01T09:19:05;96689.22;;;20.71;77.81
13553;BME280;6847;48.830;9.116;2023-08-01T09:21:33;96682.13;;;20.70;77.96
13553;BME280;6847;48.830;9.116;2023-08-01T09:24:10;96681.69;;;20.68;77.98
13553;BME280;6847;48.830;9.116;2023-08-01T09:26:38;96683.19;;;20.62;78.00
13553;BME280;6847;48.830;9.116;2023-08-01T09:29:05;96677.59;;;20.55;77.98
13553;BME280;6847;48.830;9.116;2023-08-01T09:31:33;96679.41;;;20.44;77.96
13553;BME280;6847;48.830;9.116;2023-08-01T09:34:04;96678.41;;;20.32;78.34
13553;BME280;6847;48.830;9.116;2023-08-01T09:36:32;96612.13;;;19.85;78.68
13553;BME280;6847;48.830;9.116;2023-08-01T09:38:59;96675.06;;;20.20;78.96
13553;BME280;6847;48.830;9.116;2023-08-01T09:41:28;96693.19;;;20.47;79.34
13553;BME280;6847;48.830;9.116;2023-08-01T09:43:58;96677.28;;;20.60;79.71
13553;BME280;6847;48.830;9.116;2023-08-01T09:46:25;96639.84;;;20.52;79.33
13553;BME280;6847;48.830;9.116;2023-08-01T09:48:52;96663.81;;;20.81;78.90
13553;BME280;6847;48.830;9.116;2023-08-01T09:51:20;96683.94;;;21.19;78.79
13553;BME280;6847;48.830;9.116;2023-08-01T09:53:49;96680.59;;;21.36;78.57
13553;BME280;6847;48.830;9.116;2023-08-01T09:56:18;96693.78;;;21.53;77.88
13553;BME280;6847;48.830;9.116;2023-08-01T09:58:46;96702.50;;;21.59;77.47
13553;BME280;6847;48.830;9.116;2023-08-01T10:01:14;96678.84;;;21.54;77.47
13553;BME280;6847;48.830;9.116;2023-08-01T10:03:44;96698.63;;;21.67;77.44
13553;BME280;6847;48.830;9.116;2023-08-01T10:06:17;96671.41;;;21.58;77.63
13553;BME280;6847;48.830;9.116;2023-08-01T10:08:46;96706.00;;;21.93;77.65
13553;BME280;6847;48.830;9.116;2023-08-01T10:11:16;96708.41;;;21.98;77.53
13553;BME280;6847;48.830;9.116;2023-08-01T10:13:43;96711.63;;;22.07;77.39
13553;BME280;6847;48.830;9.116;2023-08-01T10:16:11;96618.19;;;21.47;76.96
13553;BME280;6847;48.830;9.116;2023-08-01T10:18:39;96660.22;;;21.81;77.16
13553;BME280;6847;48.830;9.116;2023-08-01T10:21:07;96700.75;;;22.21;77.27
13553;BME280;6847;48.830;9.116;2023-08-01T10:23:38;96656.47;;;22.00;77.29
13553;BME280;6847;48.830;9.116;2023-08-01T10:26:08;96714.28;;;22.40;76.97
13553;BME280;6847;48.830;9.116;2023-08-01T10:28:38;96718.22;;;22.39;76.85
13553;BME280;6847;48.830;9.116;2023-08-01T10:31:08;96718.16;;;22.32;76.49
13553;BME280;6847;48.830;9.116;2023-08-01T10:33:35;96729.47;;;22.20;76.49
13553;BME280;6847;48.830;9.116;2023-08-01T10:36:12;96719.72;;;22.33;76.75
13553;BME280;6847;48.830;9.116;2023-08-01T10:38:44;96609.91;;;23.40;75.21
13553;BME280;6847;48.830;9.116;2023-08-01T10:41:25;96715.47;;;25.78;71.33
13553;BME280;6847;48.830;9.116;2023-08-01T10:44:19;96731.69;;;27.24;69.22
13553;BME280;6847;48.830;9.116;2023-08-01T10:46:46;96741.47;;;28.00;68.52
13553;BME280;6847;48.830;9.116;2023-08-01T10:49:19;96739.38;;;28.58;67.57
13553;BME280;6847;48.830;9.116;2023-08-01T10:51:49;96744.50;;;28.86;66.97
13553;BME280;6847;48.830;9.116;2023-08-01T10:54:20;96754.59;;;29.43;67.22
13553;BME280;6847;48.830;9.116;2023-08-01T10:56:52;96752.22;;;29.61;67.00
13553;BME280;6847;48.830;9.116;2023-08-01T10:59:21;96740.25;;;28.78;68.05
13553;BME280;6847;48.830;9.116;2023-08-01T11:01:49;96744.38;;;27.89;69.30
13553;BME280;6847;48.830;9.116;2023-08-01T11:04:17;96691.97;;;27.23;70.34
13553;BME280;6847;48.830;9.116;2023-08-01T11:06:45;96761.63;;;27.77;70.19
13553;BME280;6847;48.830;9.116;2023-08-01T11:09:17;96765.41;;;28.48;68.93
13553;BME280;6847;48.830;9.116;2023-08-01T11:11:44;96696.41;;;28.59;67.79
13553;BME280;6847;48.830;9.116;2023-08-01T11:14:13;96757.63;;;28.86;67.46
13553;BME280;6847;48.830;9.116;2023-08-01T11:16:40;96762.84;;;28.84;68.47
13553;BME280;6847;48.830;9.116;2023-08-01T11:19:19;96759.03;;;28.97;68.28
13553;BME280;6847;48.830;9.116;2023-08-01T11:21:46;96759.50;;;28.69;68.48
13553;BME280;6847;48.830;9.116;2023-08-01T11:24:13;96773.25;;;28.29;69.68
13553;BME280;6847;48.830;9.116;2023-08-01T11:26:41;96768.13;;;27.97;70.42
13553;BME280;6847;48.830;9.116;2023-08-01T11:29:15;96695.34;;;27.72;70.33
13553;BME280;6847;48.830;9.116;2023-08-01T11:31:52;96786.16;;;27.86;70.45
13553;BME280;6847;48.830;9.116;2023-08-01T11:34:19;96753.63;;;27.49;71.09
13553;BME280;6847;48.830;9.116;2023-08-01T11:36:46;96774.91;;;27.62;71.54
13553;BME280;6847;48.830;9.116;2023-08-01T11:39:14;96735.00;;;27.12;71.52
13553;BME280;6847;48.830;9.116;2023-08-01T11:41:42;96791.28;;;27.91;71.27
13553;BME280;6847;48.830;9.116;2023-08-01T11:44:09;96716.06;;;27.68;70.22
13553;BME280;6847;48.830;9.116;2023-08-01T11:46:38;96784.34;;;28.83;69.62
13553;BME280;6847;48.830;9.116;2023-08-01T11:49:06;96750.59;;;29.44;69.17
13553;BME280;6847;48.830;9.116;2023-08-01T11:51:39;96742.06;;;30.07;67.66
13553;BME280;6847;48.830;9.116;2023-08-01T11:54:09;96801.00;;;30.65;67.37
13553;BME280;6847;48.830;9.116;2023-08-01T11:56:37;96806.25;;;30.63;67.09
13553;BME280;6847;48.830;9.116;2023-08-01T11:59:08;96817.88;;;30.41;67.44
13553;BME280;6847;48.830;9.116;2023-08-01T12:01:39;96786.72;;;30.07;67.45
13553;BME280;6847;48.830;9.116;2023-08-01T12:04:06;96798.22;;;30.29;67.87
13553;BME280;6847;48.830;9.116;2023-08-01T12:06:37;96810.44;;;30.55;67.92
13553;BME280;6847;48.830;9.116;2023-08-01T12:09:08;96803.94;;;30.58;68.21
13553;BME280;6847;48.830;9.116;2023-08-01T12:11:38;96815.38;;;30.11;68.53
13553;BME280;6847;48.830;9.116;2023-08-01T12:14:07;96789.47;;;29.91;68.73
13553;BME280;6847;48.830;9.116;2023-08-01T12:16:35;96806.75;;;30.22;69.17
13553;BME280;6847;48.830;9.116;2023-08-01T12:19:04;96802.13;;;30.15;68.83
13553;BME280;6847;48.830;9.116;2023-08-01T12:21:31;96811.66;;;29.98;69.26
13553;BME280;6847;48.830;9.116;2023-08-01T12:23:58;96785.63;;;29.45;69.48
13553;BME280;6847;48.830;9.116;2023-08-01T12:26:25;96783.44;;;29.33;69.51
13553;BME280;6847;48.830;9.116;2023-08-01T12:28:52;96803.47;;;29.28;69.99
13553;BME280;6847;48.830;9.116;2023-08-01T12:31:21;96800.50;;;29.15;70.35
13553;BME280;6847;48.830;9.116;2023-08-01T12:33:56;96813.13;;;28.73;69.80
13553;BME280;6847;48.830;9.116;2023-08-01T12:36:25;96810.34;;;28.50;69.99
13553;BME280;6847;48.830;9.116;2023-08-01T12:38:53;96813.44;;;28.28;69.68
13553;BME280;6847;48.830;9.116;2023-08-01T12:41:20;96811.63;;;28.11;69.60
13553;BME280;6847;48.830;9.116;2023-08-01T12:43:46;96812.38;;;27.85;69.58
13553;BME280;6847;48.830;9.116;2023-08-01T12:46:16;96811.50;;;27.61;69.20
13553;BME280;6847;48.830;9.116;2023-08-01T12:48:43;96771.47;;;27.14;69.38
13553;BME280;6847;48.830;9.116;2023-08-01T12:51:10;96804.72;;;27.24;69.52
13553;BME280;6847;48.830;9.116;2023-08-01T12:53:38;96819.06;;;27.60;69.53
13553;BME280;6847;48.830;9.116;2023-08-01T12:56:05;96808.03;;;27.84;68.82
13553;BME280;6847;48.830;9.116;2023-08-01T12:58:32;96813.47;;;28.25;68.41
13553;BME280;6847;48.830;9.116;2023-08-01T13:00:59;96818.81;;;28.66;67.72
13553;BME280;6847;48.830;9.116;2023-08-01T13:03:26;96821.91;;;28.71;66.89
13553;BME280;6847;48.830;9.116;2023-08-01T13:05:52;96651.22;;;27.44;66.99
13553;BME280;6847;48.830;9.116;2023-08-01T13:08:19;96829.88;;;28.16;67.43
13553;BME280;6847;48.830;9.116;2023-08-01T13:10:52;96813.69;;;27.77;67.15
13553;BME280;6847;48.830;9.116;2023-08-01T13:13:19;96833.59;;;27.72;67.11
13553;BME280;6847;48.830;9.116;2023-08-01T13:15:45;96836.31;;;28.09;66.50